Lier, Belgium
Current Conditions -  °F | °C
As of 6:20 PM on Thursday 27 Nov 2014 (Local Time) from EBAW Reporting Station
Haze Haze  
Wind Chill: 45°   Ceiling: 400
Heat Index: 48°   Visibility: 2.6mi
Dew Point: 45°   Wind: 7mph
Humidity: 87%   Direction: 100°E
Pressure: 29.68"   Gusts: NA
Location:  51.13°N, 4.57°E
Report Text: EBAW 271720Z 10006KT 4200 BR BKN004 09/07 Q1005 NOSIG
Loading
Personal Weather Stations






























Interactive Weather Map New forecast layout! Learn more

10-Day Weather Forecast

Advertisements
Track Severe Weather on mobile